sensor_id;sensor_type;location;lat;lon;timestamp;pressure;altitude;pressure_sealevel;temperature;humidity
51530;BME280;37613;51.788;21.582;2023-06-14T00:00:18;100215.29;;;11.67;99.74
51530;BME280;37613;51.788;21.582;2023-06-14T00:04:49;100210.92;;;11.68;99.97
51530;BME280;37613;51.788;21.582;2023-06-14T00:09:04;100206.26;;;11.69;99.67
51530;BME280;37613;51.788;21.582;2023-06-14T00:13:18;100204.59;;;11.69;99.66
51530;BME280;37613;51.788;21.582;2023-06-14T00:17:29;100210.75;;;11.71;100.00
51530;BME280;37613;51.788;21.582;2023-06-14T00:21:40;100207.02;;;11.73;99.99
51530;BME280;37613;51.788;21.582;2023-06-14T00:25:48;100206.29;;;11.74;100.00
51530;BME280;37613;51.788;21.582;2023-06-14T00:29:59;100197.84;;;11.69;99.93
51530;BME280;37613;51.788;21.582;2023-06-14T00:34:10;100205.27;;;11.76;99.97
51530;BME280;37613;51.788;21.582;2023-06-14T00:38:23;100205.43;;;11.76;100.00
51530;BME280;37613;51.788;21.582;2023-06-14T00:42:33;100208.19;;;11.77;100.00
51530;BME280;37613;51.788;21.582;2023-06-14T00:46:43;100209.45;;;11.78;100.00
51530;BME280;37613;51.788;21.582;2023-06-14T00:50:52;100205.65;;;11.78;99.94
51530;BME280;37613;51.788;21.582;2023-06-14T00:55:01;100203.66;;;11.80;99.78
51530;BME280;37613;51.788;21.582;2023-06-14T00:59:11;100202.65;;;11.81;99.84
51530;BME280;37613;51.788;21.582;2023-06-14T01:03:25;100198.92;;;11.81;99.98
51530;BME280;37613;51.788;21.582;2023-06-14T01:07:39;100195.67;;;11.81;99.74
51530;BME280;37613;51.788;21.582;2023-06-14T01:12:12;100192.19;;;11.82;99.86
51530;BME280;37613;51.788;21.582;2023-06-14T01:16:22;100187.20;;;11.78;99.80
51530;BME280;37613;51.788;21.582;2023-06-14T01:20:35;100191.08;;;11.84;99.60
51530;BME280;37613;51.788;21.582;2023-06-14T01:24:53;100189.01;;;11.86;99.73
51530;BME280;37613;51.788;21.582;2023-06-14T01:29:03;100190.83;;;11.86;99.57
51530;BME280;37613;51.788;21.582;2023-06-14T01:33:15;100191.62;;;11.86;99.52
51530;BME280;37613;51.788;21.582;2023-06-14T01:37:22;100187.95;;;11.88;99.56
51530;BME280;37613;51.788;21.582;2023-06-14T01:41:27;100184.16;;;11.88;99.44
51530;BME280;37613;51.788;21.582;2023-06-14T01:45:35;100182.51;;;11.87;99.68
51530;BME280;37613;51.788;21.582;2023-06-14T01:49:41;100185.84;;;11.85;99.61
51530;BME280;37613;51.788;21.582;2023-06-14T01:53:53;100188.46;;;11.84;99.78
51530;BME280;37613;51.788;21.582;2023-06-14T01:58:04;100186.95;;;11.83;99.72
51530;BME280;37613;51.788;21.582;2023-06-14T02:02:13;100186.88;;;11.81;99.86
51530;BME280;37613;51.788;21.582;2023-06-14T02:06:27;100184.11;;;11.81;99.69
51530;BME280;37613;51.788;21.582;2023-06-14T02:10:35;100175.04;;;11.74;99.77
51530;BME280;37613;51.788;21.582;2023-06-14T02:14:41;100181.74;;;11.77;99.92
51530;BME280;37613;51.788;21.582;2023-06-14T02:18:55;100179.54;;;11.74;100.00
51530;BME280;37613;51.788;21.582;2023-06-14T02:23:03;100179.48;;;11.71;100.00
51530;BME280;37613;51.788;21.582;2023-06-14T02:27:16;100180.04;;;11.70;100.00
51530;BME280;37613;51.788;21.582;2023-06-14T02:31:26;100179.64;;;11.69;100.00
51530;BME280;37613;51.788;21.582;2023-06-14T02:35:39;100175.52;;;11.67;100.00
51530;BME280;37613;51.788;21.582;2023-06-14T02:39:51;100174.42;;;11.66;100.00
51530;BME280;37613;51.788;21.582;2023-06-14T02:44:04;100177.34;;;11.66;100.00
51530;BME280;37613;51.788;21.582;2023-06-14T02:48:12;100173.87;;;11.68;100.00
51530;BME280;37613;51.788;21.582;2023-06-14T02:52:16;100171.41;;;11.69;100.00
51530;BME280;37613;51.788;21.582;2023-06-14T02:56:27;100172.61;;;11.69;100.00
51530;BME280;37613;51.788;21.582;2023-06-14T03:00:38;100169.84;;;11.69;100.00
51530;BME280;37613;51.788;21.582;2023-06-14T03:04:51;100171.24;;;11.70;100.00
51530;BME280;37613;51.788;21.582;2023-06-14T03:09:07;100166.94;;;11.73;100.00
51530;BME280;37613;51.788;21.582;2023-06-14T03:13:22;100169.40;;;11.75;100.00
51530;BME280;37613;51.788;21.582;2023-06-14T03:17:33;100168.05;;;11.76;100.00
51530;BME280;37613;51.788;21.582;2023-06-14T03:21:43;100167.81;;;11.77;100.00
51530;BME280;37613;51.788;21.582;2023-06-14T03:25:52;100169.63;;;11.78;100.00
51530;BME280;37613;51.788;21.582;2023-06-14T03:30:02;100173.09;;;11.80;100.00
51530;BME280;37613;51.788;21.582;2023-06-14T03:34:13;100171.12;;;11.84;100.00
51530;BME280;37613;51.788;21.582;2023-06-14T03:38:28;100173.40;;;11.86;100.00
51530;BME280;37613;51.788;21.582;2023-06-14T03:42:43;100175.93;;;11.87;100.00
51530;BME280;37613;51.788;21.582;2023-06-14T03:46:52;100172.58;;;11.90;100.00
51530;BME280;37613;51.788;21.582;2023-06-14T03:51:00;100170.73;;;11.94;100.00
51530;BME280;37613;51.788;21.582;2023-06-14T03:55:11;100160.92;;;11.91;100.00
51530;BME280;37613;51.788;21.582;2023-06-14T03:59:28;100170.00;;;11.97;100.00
51530;BME280;37613;51.788;21.582;2023-06-14T04:03:36;100171.75;;;11.98;100.00
51530;BME280;37613;51.788;21.582;2023-06-14T04:07:46;100171.58;;;12.01;100.00
51530;BME280;37613;51.788;21.582;2023-06-14T04:11:57;100169.40;;;12.05;100.00
51530;BME280;37613;51.788;21.582;2023-06-14T04:16:08;100176.05;;;12.06;100.00
51530;BME280;37613;51.788;21.582;2023-06-14T04:20:22;100179.67;;;12.09;100.00
51530;BME280;37613;51.788;21.582;2023-06-14T04:24:35;100182.57;;;12.14;100.00
51530;BME280;37613;51.788;21.582;2023-06-14T04:28:54;100186.19;;;12.18;100.00
51530;BME280;37613;51.788;21.582;2023-06-14T04:33:04;100185.27;;;12.24;100.00
51530;BME280;37613;51.788;21.582;2023-06-14T04:37:13;100180.57;;;12.29;100.00
51530;BME280;37613;51.788;21.582;2023-06-14T04:41:28;100178.45;;;12.37;100.00
51530;BME280;37613;51.788;21.582;2023-06-14T04:45:41;100180.98;;;12.47;100.00
51530;BME280;37613;51.788;21.582;2023-06-14T04:49:52;100180.27;;;12.48;100.00
51530;BME280;37613;51.788;21.582;2023-06-14T04:54:06;100178.98;;;12.49;100.00
51530;BME280;37613;51.788;21.582;2023-06-14T05:22:41;100179.06;;;13.37;100.00
51530;BME280;37613;51.788;21.582;2023-06-14T05:32:25;100176.15;;;14.28;100.00
51530;BME280;37613;51.788;21.582;2023-06-14T06:13:42;100177.14;;;18.17;87.57
51530;BME280;37613;51.788;21.582;2023-06-14T06:17:47;100182.17;;;18.37;87.80
51530;BME280;37613;51.788;21.582;2023-06-14T06:21:50;100189.67;;;18.59;87.98
51530;BME280;37613;51.788;21.582;2023-06-14T06:25:52;100189.17;;;18.46;88.07
51530;BME280;37613;51.788;21.582;2023-06-14T06:29:55;100192.95;;;18.40;87.90
51530;BME280;37613;51.788;21.582;2023-06-14T06:34:00;100198.85;;;18.61;88.16
51530;BME280;37613;51.788;21.582;2023-06-14T06:38:05;100201.58;;;18.99;86.94
51530;BME280;37613;51.788;21.582;2023-06-14T06:42:08;100206.17;;;18.98;83.12
51530;BME280;37613;51.788;21.582;2023-06-14T06:46:10;100211.48;;;18.93;83.55
51530;BME280;37613;51.788;21.582;2023-06-14T06:50:15;100216.12;;;18.90;81.76
51530;BME280;37613;51.788;21.582;2023-06-14T06:54:20;100213.06;;;18.74;82.54
51530;BME280;37613;51.788;21.582;2023-06-14T06:58:22;100206.30;;;18.76;83.14
51530;BME280;37613;51.788;21.582;2023-06-14T07:02:25;100208.36;;;18.79;82.72
51530;BME280;37613;51.788;21.582;2023-06-14T07:06:27;100205.20;;;18.71;82.44
51530;BME280;37613;51.788;21.582;2023-06-14T07:10:32;100209.02;;;18.68;82.99
51530;BME280;37613;51.788;21.582;2023-06-14T07:14:39;100211.35;;;18.68;81.18
51530;BME280;37613;51.788;21.582;2023-06-14T07:18:44;100209.52;;;18.59;81.12
51530;BME280;37613;51.788;21.582;2023-06-14T07:22:51;100210.66;;;18.59;79.78
51530;BME280;37613;51.788;21.582;2023-06-14T07:26:56;100207.75;;;18.60;78.26
51530;BME280;37613;51.788;21.582;2023-06-14T07:30:58;100208.13;;;18.61;78.04
51530;BME280;37613;51.788;21.582;2023-06-14T07:35:00;100211.10;;;18.58;78.51
51530;BME280;37613;51.788;21.582;2023-06-14T07:39:02;100210.45;;;18.71;78.70
51530;BME280;37613;51.788;21.582;2023-06-14T07:43:08;100211.80;;;19.00;77.67
51530;BME280;37613;51.788;21.582;2023-06-14T07:47:16;100213.14;;;19.25;75.87
51530;BME280;37613;51.788;21.582;2023-06-14T07:51:18;100213.06;;;19.35;74.61
51530;BME280;37613;51.788;21.582;2023-06-14T07:55:20;100206.69;;;19.69;75.67
51530;BME280;37613;51.788;21.582;2023-06-14T07:59:22;100207.43;;;19.94;73.06
51530;BME280;37613;51.788;21.582;2023-06-14T08:03:25;100203.10;;;19.73;70.77
51530;BME280;37613;51.788;21.582;2023-06-14T08:07:31;100204.92;;;19.88;70.53
51530;BME280;37613;51.788;21.582;2023-06-14T08:11:33;100211.06;;;20.18;68.78
51530;BME280;37613;51.788;21.582;2023-06-14T08:15:50;100207.36;;;20.22;65.14
51530;BME280;37613;51.788;21.582;2023-06-14T08:19:58;100208.52;;;20.21;66.15
51530;BME280;37613;51.788;21.582;2023-06-14T08:24:01;100202.95;;;20.34;67.08
51530;BME280;37613;51.788;21.582;2023-06-14T08:28:21;100199.92;;;20.58;66.39
51530;BME280;37613;51.788;21.582;2023-06-14T08:32:28;100196.90;;;20.73;66.09
51530;BME280;37613;51.788;21.582;2023-06-14T08:36:59;100189.04;;;20.71;64.58
51530;BME280;37613;51.788;21.582;2023-06-14T08:41:11;100189.38;;;20.86;64.17
51530;BME280;37613;51.788;21.582;2023-06-14T08:45:15;100196.17;;;21.20;63.69
51530;BME280;37613;51.788;21.582;2023-06-14T08:49:36;100193.77;;;21.44;62.29
51530;BME280;37613;51.788;21.582;2023-06-14T08:53:57;100196.95;;;21.55;60.93
51530;BME280;37613;51.788;21.582;2023-06-14T08:58:03;100196.88;;;21.43;60.51
51530;BME280;37613;51.788;21.582;2023-06-14T09:02:08;100192.33;;;21.32;62.15
51530;BME280;37613;51.788;21.582;2023-06-14T09:06:10;100191.76;;;21.21;61.49
51530;BME280;37613;51.788;21.582;2023-06-14T09:10:21;100188.44;;;21.09;62.00
51530;BME280;37613;51.788;21.582;2023-06-14T09:14:24;100184.73;;;21.02;60.92
51530;BME280;37613;51.788;21.582;2023-06-14T09:18:40;100187.32;;;20.74;59.63
51530;BME280;37613;51.788;21.582;2023-06-14T09:22:46;100185.23;;;20.56;59.88
51530;BME280;37613;51.788;21.582;2023-06-14T09:26:51;100182.50;;;20.66;59.50
51530;BME280;37613;51.788;21.582;2023-06-14T09:30:57;100181.17;;;20.63;57.89
51530;BME280;37613;51.788;21.582;2023-06-14T09:35:09;100178.67;;;20.48;58.25
51530;BME280;37613;51.788;21.582;2023-06-14T09:39:23;100181.91;;;20.47;59.07
51530;BME280;37613;51.788;21.582;2023-06-14T09:43:27;100182.59;;;20.62;58.76
51530;BME280;37613;51.788;21.582;2023-06-14T09:47:45;100185.64;;;20.50;58.37
51530;BME280;37613;51.788;21.582;2023-06-14T09:51:54;100182.17;;;20.26;58.83
51530;BME280;37613;51.788;21.582;2023-06-14T09:56:07;100181.48;;;20.09;59.36
51530;BME280;37613;51.788;21.582;2023-06-14T10:00:10;100181.65;;;19.91;59.94
51530;BME280;37613;51.788;21.582;2023-06-14T10:04:22;100182.80;;;19.78;60.33
51530;BME280;37613;51.788;21.582;2023-06-14T10:08:30;100181.52;;;19.75;60.46
51530;BME280;37613;51.788;21.582;2023-06-14T10:12:34;100182.04;;;19.87;60.72
51530;BME280;37613;51.788;21.582;2023-06-14T10:17:03;100178.18;;;20.12;60.27
51530;BME280;37613;51.788;21.582;2023-06-14T10:25:56;100173.43;;;20.26;57.55
51530;BME280;37613;51.788;21.582;2023-06-14T10:30:07;100170.48;;;20.14;56.62
51530;BME280;37613;51.788;21.582;2023-06-14T10:34:21;100170.81;;;20.05;56.03
51530;BME280;37613;51.788;21.582;2023-06-14T10:38:39;100161.45;;;20.09;56.33
51530;BME280;37613;51.788;21.582;2023-06-14T10:42:51;100155.77;;;20.21;56.01
51530;BME280;37613;51.788;21.582;2023-06-14T10:46:58;100153.50;;;20.37;56.28
51530;BME280;37613;51.788;21.582;2023-06-14T10:51:15;100154.10;;;20.61;54.06
51530;BME280;37613;51.788;21.582;2023-06-14T10:55:40;100151.47;;;20.65;53.81
51530;BME280;37613;51.788;21.582;2023-06-14T10:59:46;100155.48;;;20.89;52.36
51530;BME280;37613;51.788;21.582;2023-06-14T11:04:07;100154.01;;;21.01;50.96
51530;BME280;37613;51.788;21.582;2023-06-14T11:12:47;100157.11;;;21.20;47.44
51530;BME280;37613;51.788;21.582;2023-06-14T11:16:55;100151.39;;;21.31;46.97
51530;BME280;37613;51.788;21.582;2023-06-14T11:21:02;100147.88;;;21.44;47.82
51530;BME280;37613;51.788;21.582;2023-06-14T11:25:13;100140.84;;;21.59;46.77
51530;BME280;37613;51.788;21.582;2023-06-14T11:29:20;100135.19;;;21.78;46.98
51530;BME280;37613;51.788;21.582;2023-06-14T11:33:25;100136.02;;;21.93;46.47
51530;BME280;37613;51.788;21.582;2023-06-14T11:37:27;100135.52;;;21.85;46.65
51530;BME280;37613;51.788;21.582;2023-06-14T11:41:44;100133.50;;;21.84;47.01
51530;BME280;37613;51.788;21.582;2023-06-14T11:46:00;100145.27;;;21.62;47.20
51530;BME280;37613;51.788;21.582;2023-06-14T11:50:18;100145.36;;;21.20;47.86
51530;BME280;37613;51.788;21.582;2023-06-14T11:54:44;100149.79;;;20.91;48.62
51530;BME280;37613;51.788;21.582;2023-06-14T11:58:49;100150.81;;;20.56;49.61
51530;BME280;37613;51.788;21.582;2023-06-14T12:03:11;100151.73;;;20.45;50.56
51530;BME280;37613;51.788;21.582;2023-06-14T12:07:15;100151.83;;;20.23;51.07
51530;BME280;37613;51.788;21.582;2023-06-14T12:11:18;100153.94;;;20.04;51.96
51530;BME280;37613;51.788;21.582;2023-06-14T12:15:24;100152.05;;;19.87;52.83
51530;BME280;37613;51.788;21.582;2023-06-14T12:19:26;100150.97;;;19.73;53.09
51530;BME280;37613;51.788;21.582;2023-06-14T12:24:08;100148.40;;;19.67;53.42
51530;BME280;37613;51.788;21.582;2023-06-14T12:28:15;100149.32;;;19.62;53.69
51530;BME280;37613;51.788;21.582;2023-06-14T12:32:20;100149.99;;;19.65;54.21
51530;BME280;37613;51.788;21.582;2023-06-14T12:36:22;100149.90;;;19.70;54.33
51530;BME280;37613;51.788;21.582;2023-06-14T12:40:43;100148.86;;;19.70;54.94
51530;BME280;37613;51.788;21.582;2023-06-14T12:44:54;100145.61;;;19.75;55.52
51530;BME280;37613;51.788;21.582;2023-06-14T12:49:12;100147.13;;;19.78;55.46
51530;BME280;37613;51.788;21.582;2023-06-14T12:53:26;100144.77;;;19.82;55.69
51530;BME280;37613;51.788;21.582;2023-06-14T12:57:31;100144.68;;;19.89;55.89
51530;BME280;37613;51.788;21.582;2023-06-14T13:01:38;100144.81;;;19.91;55.93
51530;BME280;37613;51.788;21.582;2023-06-14T13:05:44;100145.56;;;19.91;55.94
51530;BME280;37613;51.788;21.582;2023-06-14T13:09:55;100147.45;;;19.81;56.43
51530;BME280;37613;51.788;21.582;2023-06-14T13:13:57;100146.07;;;19.82;56.61
51530;BME280;37613;51.788;21.582;2023-06-14T13:18:00;100144.75;;;19.85;56.94
51530;BME280;37613;51.788;21.582;2023-06-14T13:22:07;100145.14;;;19.79;57.33
51530;BME280;37613;51.788;21.582;2023-06-14T13:26:13;100150.20;;;19.79;57.35
51530;BME280;37613;51.788;21.582;2023-06-14T13:30:15;100149.51;;;19.65;57.86
51530;BME280;37613;51.788;21.582;2023-06-14T13:34:24;100144.13;;;19.57;58.35
51530;BME280;37613;51.788;21.582;2023-06-14T13:38:29;100145.41;;;19.57;58.84
51530;BME280;37613;51.788;21.582;2023-06-14T13:42:31;100144.53;;;19.46;59.41
51530;BME280;37613;51.788;21.582;2023-06-14T13:46:37;100143.16;;;19.39;59.63
51530;BME280;37613;51.788;21.582;2023-06-14T13:50:55;100148.80;;;19.35;60.69
51530;BME280;37613;51.788;21.582;2023-06-14T13:55:21;100150.53;;;19.31;61.31
51530;BME280;37613;51.788;21.582;2023-06-14T13:59:30;100149.51;;;19.24;61.42
51530;BME280;37613;51.788;21.582;2023-06-14T14:03:48;100143.16;;;19.27;61.50
51530;BME280;37613;51.788;21.582;2023-06-14T14:07:51;100138.33;;;19.34;61.75
51530;BME280;37613;51.788;21.582;2023-06-14T14:12:12;100140.09;;;19.40;61.19
51530;BME280;37613;51.788;21.582;2023-06-14T14:16:23;100137.42;;;19.38;61.12
51530;BME280;37613;51.788;21.582;2023-06-14T14:20:25;100138.16;;;19.42;61.30
51530;BME280;37613;51.788;21.582;2023-06-14T14:24:37;100141.55;;;19.51;61.34
51530;BME280;37613;51.788;21.582;2023-06-14T14:29:09;100136.30;;;19.52;61.17
51530;BME280;37613;51.788;21.582;2023-06-14T14:33:13;100134.99;;;19.50;61.35
51530;BME280;37613;51.788;21.582;2023-06-14T14:37:20;100137.18;;;19.45;61.71
51530;BME280;37613;51.788;21.582;2023-06-14T14:41:37;100135.73;;;19.34;62.06
51530;BME280;37613;51.788;21.582;2023-06-14T14:45:52;100142.09;;;19.20;62.35
51530;BME280;37613;51.788;21.582;2023-06-14T14:49:57;100146.45;;;19.11;62.19
51530;BME280;37613;51.788;21.582;2023-06-14T14:54:06;100153.89;;;18.95;62.69
51530;BME280;37613;51.788;21.582;2023-06-14T14:58:20;100156.48;;;18.76;63.37
51530;BME280;37613;51.788;21.582;2023-06-14T15:02:22;100158.06;;;18.60;63.11
51530;BME280;37613;51.788;21.582;2023-06-14T15:06:28;100156.77;;;18.48;63.45
51530;BME280;37613;51.788;21.582;2023-06-14T15:10:39;100153.41;;;18.38;64.14
51530;BME280;37613;51.788;21.582;2023-06-14T15:14:43;100148.29;;;18.28;64.66
51530;BME280;37613;51.788;21.582;2023-06-14T15:19:00;100143.89;;;18.19;65.02
51530;BME280;37613;51.788;21.582;2023-06-14T15:23:02;100138.27;;;18.09;65.91
51530;BME280;37613;51.788;21.582;2023-06-14T15:27:07;100135.30;;;17.94;66.34
51530;BME280;37613;51.788;21.582;2023-06-14T15:31:10;100135.59;;;17.77;67.21
51530;BME280;37613;51.788;21.582;2023-06-14T15:35:16;100134.21;;;17.58;68.68
51530;BME280;37613;51.788;21.582;2023-06-14T15:39:34;100132.18;;;17.44;69.21
51530;BME280;37613;51.788;21.582;2023-06-14T15:43:42;100128.91;;;17.33;69.55
51530;BME280;37613;51.788;21.582;2023-06-14T15:47:47;100124.34;;;17.22;70.26
51530;BME280;37613;51.788;21.582;2023-06-14T15:51:55;100120.90;;;17.14;69.94
51530;BME280;37613;51.788;21.582;2023-06-14T15:56:06;100121.19;;;17.07;70.18
51530;BME280;37613;51.788;21.582;2023-06-14T16:00:15;100119.64;;;17.02;70.79
51530;BME280;37613;51.788;21.582;2023-06-14T16:04:24;100122.88;;;16.97;70.64
51530;BME280;37613;51.788;21.582;2023-06-14T16:08:35;100122.20;;;16.93;70.63
51530;BME280;37613;51.788;21.582;2023-06-14T16:12:40;100124.02;;;16.87;71.64
51530;BME280;37613;51.788;21.582;2023-06-14T16:16:45;100129.50;;;16.83;71.89
51530;BME280;37613;51.788;21.582;2023-06-14T16:20:54;100130.10;;;16.84;72.13
51530;BME280;37613;51.788;21.582;2023-06-14T16:24:59;100130.19;;;16.80;72.19
51530;BME280;37613;51.788;21.582;2023-06-14T16:29:01;100131.40;;;16.74;72.85
51530;BME280;37613;51.788;21.582;2023-06-14T16:33:05;100131.17;;;16.66;73.16
51530;BME280;37613;51.788;21.582;2023-06-14T16:37:07;100133.91;;;16.65;73.43
51530;BME280;37613;51.788;21.582;2023-06-14T16:41:13;100136.88;;;16.72;73.58
51530;BME280;37613;51.788;21.582;2023-06-14T16:45:15;100139.40;;;16.80;73.86
51530;BME280;37613;51.788;21.582;2023-06-14T16:49:22;100143.02;;;16.84;74.00
51530;BME280;37613;51.788;21.582;2023-06-14T16:53:32;100143.68;;;16.83;74.01
51530;BME280;37613;51.788;21.582;2023-06-14T16:57:35;100144.23;;;16.81;74.26
51530;BME280;37613;51.788;21.582;2023-06-14T17:01:37;100145.50;;;16.81;74.57
51530;BME280;37613;51.788;21.582;2023-06-14T17:05:55;100139.92;;;16.81;74.86
51530;BME280;37613;51.788;21.582;2023-06-14T17:09:59;100140.55;;;16.81;75.07
51530;BME280;37613;51.788;21.582;2023-06-14T17:14:01;100137.77;;;16.78;75.25
51530;BME280;37613;51.788;21.582;2023-06-14T17:18:06;100142.06;;;16.76;75.43
51530;BME280;37613;51.788;21.582;2023-06-14T17:22:11;100142.84;;;16.74;75.66
51530;BME280;37613;51.788;21.582;2023-06-14T17:26:14;100144.64;;;16.71;75.86
51530;BME280;37613;51.788;21.582;2023-06-14T18:33:20;100158.98;;;15.44;78.42
51530;BME280;37613;51.788;21.582;2023-06-14T18:37:35;100163.27;;;15.36;78.69
51530;BME280;37613;51.788;21.582;2023-06-14T18:41:56;100158.57;;;15.28;78.95
51530;BME280;37613;51.788;21.582;2023-06-14T18:46:08;100157.02;;;15.22;79.17
51530;BME280;37613;51.788;21.582;2023-06-14T18:50:11;100160.91;;;15.18;79.32
51530;BME280;37613;51.788;21.582;2023-06-14T18:54:17;100155.52;;;15.13;79.41
51530;BME280;37613;51.788;21.582;2023-06-14T18:58:25;100161.37;;;15.12;79.67
51530;BME280;37613;51.788;21.582;2023-06-14T19:02:29;100167.59;;;15.10;79.94
51530;BME280;37613;51.788;21.582;2023-06-14T19:06:40;100170.79;;;15.09;79.98
51530;BME280;37613;51.788;21.582;2023-06-14T19:15:16;100172.54;;;14.97;80.11
51530;BME280;37613;51.788;21.582;2023-06-14T19:19:37;100178.77;;;14.91;80.36
51530;BME280;37613;51.788;21.582;2023-06-14T19:23:40;100177.19;;;14.88;80.61
51530;BME280;37613;51.788;21.582;2023-06-14T19:27:56;100179.81;;;14.86;80.88
51530;BME280;37613;51.788;21.582;2023-06-14T19:41:50;100185.61;;;14.83;81.35
51530;BME280;37613;51.788;21.582;2023-06-14T19:46:25;100182.45;;;14.82;81.51
51530;BME280;37613;51.788;21.582;2023-06-14T19:56:36;100181.02;;;14.82;81.88
51530;BME280;37613;51.788;21.582;2023-06-14T20:06:32;100182.96;;;14.83;82.27
51530;BME280;37613;51.788;21.582;2023-06-14T20:10:51;100182.45;;;14.81;82.29
51530;BME280;37613;51.788;21.582;2023-06-14T20:15:32;100182.80;;;14.80;82.41
51530;BME280;37613;51.788;21.582;2023-06-14T20:19:56;100187.66;;;14.80;82.47
51530;BME280;37613;51.788;21.582;2023-06-14T20:24:15;100197.01;;;14.77;82.62
51530;BME280;37613;51.788;21.582;2023-06-14T20:28:27;100199.64;;;14.76;82.70
51530;BME280;37613;51.788;21.582;2023-06-14T20:32:52;100205.98;;;14.78;82.96
51530;BME280;37613;51.788;21.582;2023-06-14T20:36:55;100207.77;;;14.80;83.14
51530;BME280;37613;51.788;21.582;2023-06-14T20:41:02;100208.30;;;14.86;83.31
51530;BME280;37613;51.788;21.582;2023-06-14T20:45:29;100204.95;;;14.87;83.37
51530;BME280;37613;51.788;21.582;2023-06-14T20:49:33;100199.44;;;14.79;83.64
51530;BME280;37613;51.788;21.582;2023-06-14T20:53:37;100204.46;;;14.73;84.11
51530;BME280;37613;51.788;21.582;2023-06-14T20:57:41;100203.59;;;14.74;84.17
51530;BME280;37613;51.788;21.582;2023-06-14T21:01:47;100201.75;;;14.75;84.18
51530;BME280;37613;51.788;21.582;2023-06-14T21:05:50;100199.27;;;14.75;84.59
51530;BME280;37613;51.788;21.582;2023-06-14T21:09:55;100197.89;;;14.72;84.66
51530;BME280;37613;51.788;21.582;2023-06-14T21:14:03;100201.90;;;14.70;84.89
51530;BME280;37613;51.788;21.582;2023-06-14T21:19:37;100194.70;;;14.68;85.04
51530;BME280;37613;51.788;21.582;2023-06-14T21:24:37;100192.23;;;14.63;85.15
51530;BME280;37613;51.788;21.582;2023-06-14T21:28:58;100186.48;;;14.60;85.28
51530;BME280;37613;51.788;21.582;2023-06-14T21:33:23;100181.02;;;14.58;85.44
51530;BME280;37613;51.788;21.582;2023-06-14T21:37:48;100182.92;;;14.54;86.37
51530;BME280;37613;51.788;21.582;2023-06-14T21:51:49;100179.61;;;14.20;87.72
51530;BME280;37613;51.788;21.582;2023-06-14T21:55:51;100182.98;;;14.13;87.75
51530;BME280;37613;51.788;21.582;2023-06-14T21:59:58;100180.24;;;14.11;87.66
51530;BME280;37613;51.788;21.582;2023-06-14T22:04:00;100176.54;;;14.08;87.98
51530;BME280;37613;51.788;21.582;2023-06-14T22:08:03;100171.39;;;14.06;89.32
51530;BME280;37613;51.788;21.582;2023-06-14T22:12:09;100160.71;;;14.03;91.16
51530;BME280;37613;51.788;21.582;2023-06-14T22:16:18;100159.02;;;14.00;91.04
51530;BME280;37613;51.788;21.582;2023-06-14T22:20:44;100156.86;;;13.96;89.80
51530;BME280;37613;51.788;21.582;2023-06-14T22:25:25;100158.77;;;13.96;89.39
51530;BME280;37613;51.788;21.582;2023-06-14T22:29:31;100159.04;;;13.98;89.21
51530;BME280;37613;51.788;21.582;2023-06-14T22:33:50;100153.61;;;14.00;89.28
51530;BME280;37613;51.788;21.582;2023-06-14T22:37:53;100157.89;;;14.01;89.26
51530;BME280;37613;51.788;21.582;2023-06-14T22:42:01;100159.39;;;14.02;89.26
51530;BME280;37613;51.788;21.582;2023-06-14T22:46:13;100153.23;;;14.04;89.23
51530;BME280;37613;51.788;21.582;2023-06-14T22:50:29;100151.83;;;14.08;89.27
51530;BME280;37613;51.788;21.582;2023-06-14T22:54:34;100145.38;;;14.09;89.31
51530;BME280;37613;51.788;21.582;2023-06-14T22:58:47;100146.02;;;14.09;89.43
51530;BME280;37613;51.788;21.582;2023-06-14T23:02:49;100144.58;;;14.08;89.82
51530;BME280;37613;51.788;21.582;2023-06-14T23:06:55;100141.32;;;14.03;91.28
51530;BME280;37613;51.788;21.582;2023-06-14T23:11:05;100144.73;;;13.99;90.66
51530;BME280;37613;51.788;21.582;2023-06-14T23:15:13;100140.55;;;13.97;90.74
51530;BME280;37613;51.788;21.582;2023-06-14T23:19:21;100139.87;;;13.95;90.38
51530;BME280;37613;51.788;21.582;2023-06-14T23:23:27;100144.07;;;13.95;90.53
51530;BME280;37613;51.788;21.582;2023-06-14T23:27:33;100144.97;;;13.99;90.50
51530;BME280;37613;51.788;21.582;2023-06-14T23:31:37;100146.20;;;14.01;90.52
51530;BME280;37613;51.788;21.582;2023-06-14T23:35:40;100141.13;;;14.05;90.85
51530;BME280;37613;51.788;21.582;2023-06-14T23:39:43;100136.75;;;14.11;90.89
51530;BME280;37613;51.788;21.582;2023-06-14T23:48:49;100139.77;;;14.17;90.90
51530;BME280;37613;51.788;21.582;2023-06-14T23:53:07;100138.90;;;14.17;90.78
51530;BME280;37613;51.788;21.582;2023-06-14T23:57:17;100137.11;;;14.13;90.77
